createdAt,value
2023-05-16T00:00:36.545Z,2.07
2023-05-16T00:03:03.388Z,2.30
2023-05-16T00:05:30.158Z,2.10
2023-05-16T00:07:56.764Z,2.63
2023-05-16T00:10:23.351Z,2.37
2023-05-16T00:12:51.644Z,2.53
2023-05-16T00:15:20.397Z,3.17
2023-05-16T00:17:47.390Z,2.50
2023-05-16T00:20:17.490Z,2.77
2023-05-16T00:22:44.488Z,3.40
2023-05-16T00:25:11.138Z,3.47
2023-05-16T00:27:37.801Z,3.00
2023-05-16T00:30:04.740Z,3.33
2023-05-16T00:32:31.412Z,3.50
2023-05-16T00:34:57.908Z,3.53
2023-05-16T00:37:24.484Z,2.93
2023-05-16T00:39:51.158Z,3.77
2023-05-16T00:42:20.862Z,3.00
2023-05-16T00:44:50.586Z,3.57
2023-05-16T00:47:17.093Z,3.07
2023-05-16T00:49:43.709Z,3.57
2023-05-16T00:52:10.627Z,4.10
2023-05-16T00:54:37.188Z,3.13
2023-05-16T00:57:05.168Z,3.10
2023-05-16T00:59:31.700Z,3.47
2023-05-16T01:01:58.659Z,3.90
2023-05-16T01:04:26.901Z,3.77
2023-05-16T01:06:53.677Z,3.37
2023-05-16T01:09:20.844Z,3.40
2023-05-16T01:11:52.173Z,3.97
2023-05-16T01:14:37.625Z,3.40
2023-05-16T01:17:27.939Z,2.70
2023-05-16T01:20:15.498Z,3.30
2023-05-16T01:22:46.124Z,2.83
2023-05-16T01:25:22.665Z,2.83
2023-05-16T01:27:49.233Z,3.63
2023-05-16T01:30:18.027Z,3.87
2023-05-16T01:32:45.091Z,4.13
2023-05-16T01:35:14.491Z,4.30
2023-05-16T01:37:46.910Z,4.30
2023-05-16T01:40:21.493Z,4.77
2023-05-16T01:42:52.729Z,4.70
2023-05-16T01:45:32.950Z,4.17
2023-05-16T01:48:07.378Z,3.87
2023-05-16T01:50:39.181Z,5.20
2023-05-16T01:53:14.657Z,4.60
2023-05-16T01:55:46.773Z,3.60
2023-05-16T01:58:16.115Z,5.03
2023-05-16T02:00:42.974Z,4.23
2023-05-16T02:03:09.691Z,4.43
2023-05-16T02:05:36.373Z,5.20
2023-05-16T02:08:03.324Z,4.63
2023-05-16T02:10:29.892Z,4.53
2023-05-16T02:12:56.337Z,5.23
2023-05-16T02:15:22.863Z,3.77
2023-05-16T02:17:49.681Z,4.97
2023-05-16T02:20:16.455Z,5.27
2023-05-16T02:22:44.620Z,5.10
2023-05-16T02:25:11.934Z,5.87
2023-05-16T02:27:38.407Z,4.93
2023-05-16T02:30:05.707Z,4.73
2023-05-16T02:32:32.978Z,4.93
2023-05-16T02:34:59.872Z,4.67
2023-05-16T02:37:26.471Z,5.67
2023-05-16T02:39:52.964Z,6.13
2023-05-16T02:42:19.749Z,5.40
2023-05-16T02:44:46.575Z,5.90
2023-05-16T02:47:13.119Z,5.43
2023-05-16T02:49:39.635Z,6.40
2023-05-16T02:52:06.536Z,6.10
2023-05-16T02:54:33.012Z,6.37
2023-05-16T02:56:59.519Z,5.10
2023-05-16T02:59:26.594Z,6.10
2023-05-16T03:01:53.444Z,5.43
2023-05-16T03:04:20.466Z,6.77
2023-05-16T03:06:47.057Z,6.67
2023-05-16T03:09:13.711Z,7.40
2023-05-16T03:11:40.240Z,5.77
2023-05-16T03:14:06.785Z,6.43
2023-05-16T03:16:33.409Z,6.37
2023-05-16T03:18:59.985Z,6.37
2023-05-16T03:21:26.646Z,5.93
2023-05-16T03:23:55.111Z,6.37
2023-05-16T03:26:22.772Z,6.90
2023-05-16T03:28:49.253Z,8.17
2023-05-16T03:31:16.200Z,7.20
2023-05-16T03:33:42.926Z,7.13
2023-05-16T03:36:10.561Z,7.03
2023-05-16T03:38:37.310Z,6.50
2023-05-16T03:41:03.858Z,6.10
2023-05-16T03:43:30.384Z,6.97
2023-05-16T03:45:57.153Z,7.07
2023-05-16T03:48:23.939Z,6.63
2023-05-16T03:50:51.458Z,6.83
2023-05-16T03:53:18.110Z,7.57
2023-05-16T03:55:45.836Z,7.53
2023-05-16T03:58:13.352Z,7.23
2023-05-16T04:00:40.078Z,7.40
2023-05-16T04:03:09.792Z,6.07
2023-05-16T04:05:38.583Z,7.00
2023-05-16T04:08:05.412Z,7.30
2023-05-16T04:10:32.031Z,7.37
2023-05-16T04:12:58.513Z,7.73
2023-05-16T04:15:25.520Z,7.43
2023-05-16T04:17:52.226Z,7.23
2023-05-16T04:20:19.668Z,7.60
2023-05-16T04:22:47.563Z,8.00
2023-05-16T04:25:14.445Z,7.10
2023-05-16T04:27:41.022Z,8.30
2023-05-16T04:30:08.443Z,9.20
2023-05-16T04:32:36.755Z,8.17
2023-05-16T04:35:03.717Z,8.67
2023-05-16T04:37:30.396Z,8.43
2023-05-16T04:39:57.017Z,8.60
2023-05-16T04:42:26.053Z,8.87
2023-05-16T04:44:52.879Z,8.00
2023-05-16T04:47:19.637Z,7.20
2023-05-16T04:49:48.355Z,7.80
2023-05-16T04:52:14.952Z,9.73
2023-05-16T04:54:41.779Z,8.90
2023-05-16T04:57:08.742Z,8.00
2023-05-16T04:59:36.660Z,7.97
2023-05-16T05:02:04.342Z,8.10
2023-05-16T05:04:31.072Z,9.03
2023-05-16T05:06:57.991Z,8.43
2023-05-16T05:09:24.609Z,7.33
2023-05-16T05:11:51.258Z,6.57
2023-05-16T05:14:18.673Z,7.10
2023-05-16T05:16:45.719Z,6.70
2023-05-16T05:19:12.232Z,8.83
2023-05-16T05:21:38.851Z,8.20
2023-05-16T05:24:05.741Z,6.43
2023-05-16T05:26:32.382Z,5.70
2023-05-16T05:29:05.174Z,8.03
2023-05-16T05:31:33.849Z,5.43
2023-05-16T05:34:00.956Z,5.93
2023-05-16T05:36:27.612Z,7.63
2023-05-16T05:38:54.313Z,5.07
2023-05-16T05:41:22.410Z,6.07
2023-05-16T05:43:49.463Z,6.53
2023-05-16T05:46:17.341Z,5.80
2023-05-16T05:48:45.122Z,7.23
2023-05-16T05:51:13.978Z,6.60
2023-05-16T05:53:41.357Z,6.13
2023-05-16T05:56:07.846Z,6.27
2023-05-16T05:58:34.437Z,6.50
2023-05-16T06:01:00.990Z,6.17
2023-05-16T06:03:27.622Z,5.63
2023-05-16T06:05:54.190Z,4.60
2023-05-16T06:08:20.722Z,7.40
2023-05-16T06:10:48.229Z,7.50
2023-05-16T06:13:14.744Z,4.90
2023-05-16T06:15:41.274Z,3.83
2023-05-16T06:18:07.867Z,5.60
2023-05-16T06:20:34.414Z,6.53
2023-05-16T06:23:01.397Z,5.50
2023-05-16T06:25:28.208Z,6.23
2023-05-16T06:27:54.958Z,6.40
2023-05-16T06:30:21.484Z,4.03
2023-05-16T06:32:48.159Z,5.93
2023-05-16T06:35:14.826Z,4.43
2023-05-16T06:37:43.046Z,6.47
2023-05-16T06:40:10.587Z,2.90
2023-05-16T06:42:37.546Z,5.37
2023-05-16T06:45:04.626Z,4.60
2023-05-16T06:47:31.262Z,3.37
2023-05-16T06:49:58.003Z,4.73
2023-05-16T06:52:25.150Z,5.67
2023-05-16T06:54:52.161Z,5.33
2023-05-16T06:57:18.726Z,3.97
2023-05-16T06:59:47.013Z,6.47
2023-05-16T07:02:13.753Z,5.63
2023-05-16T07:04:40.764Z,5.77
2023-05-16T07:07:11.707Z,5.87
2023-05-16T07:09:38.318Z,6.57
2023-05-16T07:12:06.028Z,3.80
2023-05-16T07:14:32.585Z,5.83
2023-05-16T07:16:59.273Z,4.30
2023-05-16T07:19:26.277Z,4.87
2023-05-16T07:21:55.957Z,4.97
2023-05-16T07:24:22.522Z,4.33
2023-05-16T07:26:49.111Z,5.13
2023-05-16T07:29:15.827Z,4.63
2023-05-16T07:31:42.536Z,4.37
2023-05-16T07:34:10.355Z,3.60
2023-05-16T07:36:42.946Z,3.67
2023-05-16T07:39:12.627Z,2.70
2023-05-16T07:41:51.268Z,2.83
2023-05-16T07:44:20.707Z,3.80
2023-05-16T07:46:50.855Z,3.27
2023-05-16T07:49:23.447Z,4.07
2023-05-16T07:51:52.922Z,4.40
2023-05-16T07:54:19.723Z,3.30
2023-05-16T07:56:46.301Z,2.77
2023-05-16T07:59:15.880Z,4.07
2023-05-16T08:01:54.832Z,3.27
2023-05-16T08:04:21.881Z,2.77
2023-05-16T08:06:48.465Z,4.17
2023-05-16T08:09:14.939Z,3.40
2023-05-16T08:11:41.561Z,3.87
2023-05-16T08:14:08.313Z,2.77
2023-05-16T08:16:34.911Z,3.87
2023-05-16T08:19:01.709Z,3.27
2023-05-16T08:21:32.006Z,2.50
2023-05-16T08:24:01.657Z,2.27
2023-05-16T08:26:28.523Z,3.30
2023-05-16T08:29:01.942Z,1.83
2023-05-16T08:31:28.520Z,3.50
2023-05-16T08:33:58.303Z,3.90
2023-05-16T08:36:34.869Z,3.10
2023-05-16T08:39:01.956Z,4.67
2023-05-16T08:41:28.746Z,3.40
2023-05-16T08:43:55.497Z,3.93
2023-05-16T08:46:24.017Z,3.57
2023-05-16T08:48:54.352Z,3.80
2023-05-16T08:51:22.753Z,3.93
2023-05-16T08:54:16.429Z,2.97
2023-05-16T08:56:44.175Z,4.13
2023-05-16T08:59:12.604Z,3.30
2023-05-16T09:01:41.906Z,4.03
2023-05-16T09:04:13.155Z,3.43
2023-05-16T09:06:39.736Z,3.43
2023-05-16T09:09:08.229Z,5.10
2023-05-16T09:11:36.925Z,2.43
2023-05-16T09:14:04.507Z,3.17
2023-05-16T09:16:31.534Z,3.03
2023-05-16T09:19:02.039Z,3.73
2023-05-16T09:21:29.819Z,4.23
2023-05-16T09:23:56.640Z,3.67
2023-05-16T09:26:23.272Z,4.83
2023-05-16T09:28:54.091Z,4.53
2023-05-16T09:31:26.949Z,4.70
2023-05-16T09:33:56.498Z,2.80
2023-05-16T09:36:23.256Z,5.33
2023-05-16T09:38:53.070Z,4.60
2023-05-16T09:41:23.185Z,3.20
2023-05-16T09:43:49.966Z,4.43
2023-05-16T09:46:17.568Z,5.33
2023-05-16T09:48:52.567Z,4.67
2023-05-16T09:51:23.260Z,5.60
2023-05-16T09:53:52.568Z,5.20
2023-05-16T09:56:21.915Z,4.07
2023-05-16T09:58:52.151Z,5.10
2023-05-16T10:01:19.899Z,5.07
2023-05-16T10:03:47.645Z,4.60
2023-05-16T10:06:18.467Z,5.63
2023-05-16T10:08:46.673Z,5.30
2023-05-16T10:11:14.098Z,5.47
2023-05-16T10:13:50.344Z,4.90
2023-05-16T10:16:18.627Z,5.70
2023-05-16T10:18:48.573Z,5.37
2023-05-16T10:21:46.164Z,4.97
2023-05-16T10:24:18.103Z,5.20
2023-05-16T10:26:46.661Z,5.43
2023-05-16T10:29:19.156Z,4.70
2023-05-16T10:31:47.368Z,4.53
2023-05-16T10:34:14.226Z,6.20
2023-05-16T10:36:41.252Z,5.23
2023-05-16T10:39:08.753Z,5.60
2023-05-16T10:41:35.726Z,4.50
2023-05-16T10:44:05.359Z,5.40
2023-05-16T10:46:32.192Z,5.93
2023-05-16T10:49:23.855Z,4.50
2023-05-16T10:52:04.288Z,4.73
2023-05-16T10:54:39.416Z,4.50
2023-05-16T10:57:17.848Z,4.67
2023-05-16T10:59:49.494Z,3.87
2023-05-16T11:02:25.398Z,3.97
2023-05-16T11:04:54.394Z,4.63
2023-05-16T11:07:54.368Z,5.20
2023-05-16T11:10:25.651Z,2.67
2023-05-16T11:12:53.788Z,3.63
2023-05-16T11:15:28.805Z,2.00
2023-05-16T11:18:08.896Z,3.90
2023-05-16T11:20:43.337Z,4.03
2023-05-16T11:23:19.157Z,3.07
2023-05-16T11:25:47.115Z,2.60
2023-05-16T11:28:15.135Z,2.37
2023-05-16T11:30:49.791Z,1.87
2023-05-16T11:33:17.260Z,3.28
2023-05-16T11:35:44.246Z,1.67
2023-05-16T11:38:16.487Z,2.00
2023-05-16T11:40:44.604Z,2.60
2023-05-16T11:43:19.349Z,1.80
2023-05-16T11:45:50.871Z,2.73
2023-05-16T11:48:28.575Z,1.40
2023-05-16T11:50:59.599Z,2.63
2023-05-16T11:53:28.274Z,2.23
2023-05-16T11:55:56.020Z,2.57
2023-05-16T11:58:23.248Z,2.13
2023-05-16T12:00:54.121Z,1.90
2023-05-16T12:03:21.715Z,2.47
2023-05-16T12:05:57.039Z,1.57
2023-05-16T12:08:24.776Z,2.03
2023-05-16T12:10:58.214Z,1.90
2023-05-16T12:13:25.508Z,1.73
2023-05-16T12:15:52.862Z,2.23
2023-05-16T12:18:21.368Z,2.73
2023-05-16T12:20:48.246Z,1.60
2023-05-16T12:23:16.976Z,1.93
2023-05-16T12:25:49.329Z,1.50
2023-05-16T12:28:16.600Z,2.00
2023-05-16T12:30:48.453Z,1.60
2023-05-16T12:33:17.092Z,1.53
2023-05-16T12:35:48.214Z,1.70
2023-05-16T12:38:17.361Z,1.77
2023-05-16T12:40:44.972Z,1.97
2023-05-16T12:43:21.868Z,1.70
2023-05-16T12:45:56.675Z,1.77
2023-05-16T12:48:24.564Z,1.67
2023-05-16T12:50:51.125Z,1.50
2023-05-16T12:53:19.120Z,1.53
2023-05-16T12:55:45.735Z,1.27
2023-05-16T12:58:15.167Z,1.70
2023-05-16T13:00:41.906Z,1.20
2023-05-16T13:03:08.841Z,1.63
2023-05-16T13:05:36.476Z,0.70
2023-05-16T13:08:03.653Z,1.10
2023-05-16T13:10:30.344Z,1.17
2023-05-16T13:13:01.062Z,0.77
2023-05-16T13:15:28.245Z,0.90
2023-05-16T13:17:55.376Z,0.77
2023-05-16T13:20:22.324Z,0.80
2023-05-16T13:22:49.248Z,0.90
2023-05-16T13:25:16.104Z,1.03
2023-05-16T13:27:42.832Z,1.33
2023-05-16T13:30:09.786Z,0.97
2023-05-16T13:32:36.811Z,0.57
2023-05-16T13:35:06.246Z,0.80
2023-05-16T13:37:36.074Z,0.97
2023-05-16T13:40:03.202Z,0.50
2023-05-16T13:42:29.789Z,1.27
2023-05-16T13:44:56.396Z,0.70
2023-05-16T13:47:22.980Z,1.03
2023-05-16T13:49:49.911Z,0.70
2023-05-16T13:52:16.490Z,1.10
2023-05-16T13:54:42.992Z,1.20
2023-05-16T13:57:09.580Z,1.10
2023-05-16T14:02:06.802Z,0.40
2023-05-16T14:04:33.412Z,1.03
2023-05-16T14:06:59.934Z,1.37
2023-05-16T14:09:26.481Z,0.80
2023-05-16T14:11:54.167Z,0.80
2023-05-16T14:14:21.317Z,1.20
2023-05-16T14:16:47.931Z,0.83
2023-05-16T14:19:17.292Z,1.10
2023-05-16T14:21:48.589Z,0.77
2023-05-16T14:24:15.116Z,1.00
2023-05-16T14:26:42.055Z,0.80
2023-05-16T14:29:08.578Z,1.47
2023-05-16T14:31:36.667Z,0.90
2023-05-16T14:34:03.422Z,0.80
2023-05-16T14:36:30.021Z,0.80
2023-05-16T14:38:56.594Z,1.30
2023-05-16T14:41:25.740Z,0.97
2023-05-16T14:43:52.558Z,0.90
2023-05-16T14:46:21.591Z,1.03
2023-05-16T14:48:50.274Z,1.00
2023-05-16T14:51:16.947Z,0.60
2023-05-16T14:53:45.996Z,0.73
2023-05-16T14:56:14.025Z,0.97
2023-05-16T14:58:49.988Z,0.90
2023-05-16T15:01:16.794Z,1.23
2023-05-16T15:03:54.744Z,0.60
2023-05-16T15:06:23.294Z,0.80
2023-05-16T15:08:50.227Z,0.67
2023-05-16T15:11:16.831Z,0.60
2023-05-16T15:13:43.600Z,0.80
2023-05-16T15:16:10.270Z,0.80
2023-05-16T15:21:20.660Z,0.87
2023-05-16T15:23:47.457Z,0.60
2023-05-16T15:26:13.998Z,1.33
2023-05-16T15:28:41.038Z,1.20
2023-05-16T15:31:14.806Z,0.60
2023-05-16T15:33:41.562Z,0.50
2023-05-16T15:36:08.548Z,0.90
2023-05-16T15:38:36.801Z,1.03
2023-05-16T15:43:40.060Z,0.70
2023-05-16T15:46:24.288Z,0.70
2023-05-16T15:48:50.918Z,0.70
2023-05-16T15:51:17.479Z,0.70
2023-05-16T15:53:44.949Z,0.97
2023-05-16T15:56:14.656Z,1.87
2023-05-16T15:58:41.122Z,1.10
2023-05-16T16:01:07.904Z,1.10
2023-05-16T16:03:34.559Z,1.23
2023-05-16T16:06:01.193Z,0.83
2023-05-16T16:08:28.020Z,0.60
2023-05-16T16:10:54.878Z,0.70
2023-05-16T16:13:21.761Z,0.60
2023-05-16T16:15:48.445Z,0.53
2023-05-16T16:18:22.818Z,1.07
2023-05-16T16:20:49.814Z,0.50
2023-05-16T16:23:16.397Z,0.87
2023-05-16T16:25:43.095Z,0.73
2023-05-16T16:28:09.787Z,0.80
2023-05-16T16:30:38.613Z,0.77
2023-05-16T16:33:05.301Z,0.77
2023-05-16T16:35:32.082Z,0.50
2023-05-16T16:38:06.866Z,0.60
2023-05-16T16:40:34.347Z,0.93
2023-05-16T16:43:01.515Z,0.70
2023-05-16T16:45:28.474Z,0.70
2023-05-16T16:47:55.612Z,0.63
2023-05-16T16:50:22.307Z,0.90
2023-05-16T16:52:50.725Z,0.77
2023-05-16T16:55:17.573Z,0.87
2023-05-16T16:57:44.206Z,1.10
2023-05-16T17:00:11.639Z,1.43
2023-05-16T17:02:38.594Z,1.03
2023-05-16T17:05:06.515Z,1.30
2023-05-16T17:07:33.277Z,0.90
2023-05-16T17:10:01.027Z,0.87
2023-05-16T17:12:28.950Z,0.57
2023-05-16T17:14:58.335Z,1.20
2023-05-16T17:17:26.009Z,1.00
2023-05-16T17:19:53.185Z,1.00
2023-05-16T17:22:21.445Z,0.67
2023-05-16T17:24:48.197Z,0.50
2023-05-16T17:27:14.932Z,0.80
2023-05-16T17:29:44.510Z,0.80
2023-05-16T17:32:13.341Z,0.77
2023-05-16T17:34:40.013Z,0.80
2023-05-16T17:37:10.585Z,1.07
2023-05-16T17:39:37.270Z,1.40
2023-05-16T17:42:10.171Z,0.80
2023-05-16T17:45:09.170Z,0.47
2023-05-16T17:47:35.825Z,0.97
2023-05-16T17:50:08.795Z,0.60
2023-05-16T17:52:39.770Z,0.60
2023-05-16T17:55:13.855Z,0.67
2023-05-16T17:57:40.512Z,0.50
2023-05-16T18:00:07.937Z,0.70
2023-05-16T18:02:38.566Z,0.93
2023-05-16T18:05:11.251Z,0.70
2023-05-16T18:07:38.564Z,0.67
2023-05-16T18:10:06.788Z,0.80
2023-05-16T18:12:33.466Z,0.60
2023-05-16T18:15:12.515Z,0.63
2023-05-16T18:17:39.448Z,0.63
2023-05-16T18:20:10.781Z,1.27
2023-05-16T18:22:38.434Z,0.67
2023-05-16T18:25:18.578Z,0.77
2023-05-16T18:27:45.186Z,0.50
2023-05-16T18:30:13.262Z,0.80
2023-05-16T18:35:28.891Z,0.80
2023-05-16T18:37:58.155Z,0.80
2023-05-16T18:40:26.030Z,0.70
2023-05-16T18:42:52.922Z,0.80
2023-05-16T18:45:19.854Z,1.00
2023-05-16T18:47:46.801Z,0.90
2023-05-16T18:50:13.344Z,1.30
2023-05-16T18:52:40.656Z,0.67
2023-05-16T18:55:07.900Z,0.70
2023-05-16T18:57:34.864Z,0.40
2023-05-16T19:00:01.328Z,0.73
2023-05-16T19:02:40.930Z,0.60
2023-05-16T19:05:09.557Z,0.70
2023-05-16T19:07:36.346Z,1.00
2023-05-16T19:10:03.814Z,0.57
2023-05-16T19:12:32.156Z,0.87
2023-05-16T19:14:58.665Z,0.80
2023-05-16T19:17:25.332Z,0.50
2023-05-16T19:19:52.142Z,0.37
2023-05-16T19:22:18.866Z,0.80
2023-05-16T19:24:45.379Z,0.40
2023-05-16T19:27:12.135Z,0.90
2023-05-16T19:29:38.607Z,0.77
2023-05-16T19:32:05.603Z,0.93
2023-05-16T19:34:33.147Z,0.73
2023-05-16T19:37:02.143Z,0.60
2023-05-16T19:39:28.740Z,0.80
2023-05-16T19:41:56.914Z,1.10
2023-05-16T19:44:23.634Z,0.80
2023-05-16T19:46:50.167Z,1.50
2023-05-16T19:49:19.549Z,0.70
2023-05-16T19:51:46.920Z,1.60
2023-05-16T19:54:13.500Z,0.53
2023-05-16T19:56:40.108Z,0.60
2023-05-16T19:59:06.582Z,1.10
2023-05-16T20:01:33.188Z,1.30
2023-05-16T20:04:00.590Z,1.07
2023-05-16T20:06:27.165Z,0.77
2023-05-16T20:08:53.626Z,1.10
2023-05-16T20:11:20.303Z,0.80
2023-05-16T20:13:46.791Z,0.53
2023-05-16T20:16:13.511Z,1.00
2023-05-16T20:18:40.074Z,0.80
2023-05-16T20:21:06.626Z,1.00
2023-05-16T20:23:35.013Z,1.40
2023-05-16T20:26:01.721Z,1.33
2023-05-16T20:28:28.170Z,1.13
2023-05-16T20:30:54.647Z,1.33
2023-05-16T20:33:21.209Z,1.00
2023-05-16T20:35:47.921Z,1.20
2023-05-16T20:38:14.697Z,0.63
2023-05-16T20:40:41.862Z,1.83
2023-05-16T20:43:08.508Z,1.00
2023-05-16T20:45:34.949Z,0.80
2023-05-16T20:48:01.581Z,0.83
2023-05-16T20:50:28.102Z,0.60
2023-05-16T20:52:54.591Z,0.57
2023-05-16T20:55:21.280Z,0.70
2023-05-16T20:57:47.753Z,0.70
2023-05-16T21:00:14.792Z,0.90
2023-05-16T21:02:41.382Z,0.70
2023-05-16T21:05:23.077Z,0.60
2023-05-16T21:07:50.427Z,0.60
2023-05-16T21:10:17.049Z,1.17
2023-05-16T21:12:43.437Z,0.80
2023-05-16T21:15:10.145Z,0.90
2023-05-16T21:17:36.687Z,0.70
2023-05-16T21:20:05.069Z,0.60
2023-05-16T21:22:31.682Z,0.67
2023-05-16T21:24:58.153Z,0.67
2023-05-16T21:27:24.605Z,0.27
2023-05-16T21:29:50.991Z,0.57
2023-05-16T21:32:17.432Z,0.70
2023-05-16T21:34:43.937Z,1.00
2023-05-16T21:37:11.707Z,0.77
2023-05-16T21:39:38.242Z,0.50
2023-05-16T21:42:05.048Z,0.60
2023-05-16T21:44:31.621Z,1.27
2023-05-16T21:46:58.244Z,0.90
2023-05-16T21:49:24.819Z,0.70
2023-05-16T21:51:51.288Z,1.20
2023-05-16T21:54:17.748Z,0.80
2023-05-16T21:56:45.669Z,0.57
2023-05-16T21:59:13.838Z,0.73
2023-05-16T22:01:40.359Z,0.40
2023-05-16T22:04:06.932Z,1.00
2023-05-16T22:06:33.492Z,0.63
2023-05-16T22:09:01.501Z,0.63
2023-05-16T22:11:28.060Z,1.43
2023-05-16T22:13:54.586Z,0.80
2023-05-16T22:16:21.058Z,0.70
2023-05-16T22:18:47.907Z,0.70
2023-05-16T22:21:16.201Z,1.07
2023-05-16T22:23:42.735Z,0.70
2023-05-16T22:26:09.339Z,0.53
2023-05-16T22:28:35.812Z,0.60
2023-05-16T22:31:02.239Z,0.60
2023-05-16T22:33:28.789Z,0.97
2023-05-16T22:35:55.308Z,0.60
2023-05-16T22:38:21.821Z,0.83
2023-05-16T22:40:48.283Z,0.70
2023-05-16T22:43:14.945Z,0.97
2023-05-16T22:45:41.624Z,0.90
2023-05-16T22:48:08.244Z,0.70
2023-05-16T22:50:34.895Z,0.90
2023-05-16T22:53:01.356Z,0.80
2023-05-16T22:55:28.217Z,0.90
2023-05-16T22:57:57.137Z,0.97
2023-05-16T23:00:23.865Z,0.97
2023-05-16T23:02:50.434Z,0.57
2023-05-16T23:05:17.041Z,0.70
2023-05-16T23:07:43.509Z,0.90
2023-05-16T23:10:10.157Z,0.90
2023-05-16T23:12:37.110Z,0.90
2023-05-16T23:15:06.444Z,0.60
2023-05-16T23:17:32.912Z,0.90
2023-05-16T23:19:59.525Z,1.10
2023-05-16T23:22:26.152Z,0.83
2023-05-16T23:24:52.731Z,0.70
2023-05-16T23:27:19.191Z,0.87
2023-05-16T23:29:45.600Z,1.23
2023-05-16T23:32:12.010Z,0.80
2023-05-16T23:34:38.481Z,0.60
2023-05-16T23:37:05.174Z,0.70
2023-05-16T23:39:31.656Z,1.10
2023-05-16T23:42:00.584Z,0.77
2023-05-16T23:44:27.302Z,0.87
2023-05-16T23:46:53.764Z,0.63
2023-05-16T23:49:20.263Z,0.73
2023-05-16T23:51:57.522Z,0.63
2023-05-16T23:54:27.824Z,0.70
2023-05-16T23:56:54.269Z,0.93
2023-05-16T23:59:20.742Z,0.80
